Terminal Aerodrome Forecast
Issued by NWS

Home | Current Version | Previous Version | Text Only | Print | Product List | Glossary On
Versions: 1 2 3 4 5 6 7 8 9 10 11 12 13 14 15 16 17 18 19 20 21 22 23 24
000
FTUS46 KSEW 210800 AAA
TAFSEA
TAF AMD
KSEA 210805Z 2108/2212 15006KT P6SM VCSH BKN050
      TEMPO 2108/2112 -SHRA OVC035
     FM211300 18007KT P6SM VCSH BKN025 OVC035
     FM211900 19012KT P6SM VCSH OVC040
     FM220000 16013KT P6SM -RA OVC035
     FM220600 16015G25KT P6SM RA OVC025=

USA.gov is the U.S. government's official web portal to all federal, state and local government web resources and services.